createdAt,value
2022-07-27T00:02:12.232Z,1.20
2022-07-27T00:04:40.095Z,1.20
2022-07-27T00:07:08.037Z,1.20
2022-07-27T00:09:35.836Z,1.63
2022-07-27T00:12:03.713Z,1.27
2022-07-27T00:14:31.519Z,1.20
2022-07-27T00:17:00.900Z,1.50
2022-07-27T00:19:28.747Z,1.50
2022-07-27T00:21:58.450Z,1.20
2022-07-27T00:24:26.522Z,1.43
2022-07-27T00:26:54.367Z,1.50
2022-07-27T00:29:22.175Z,1.40
2022-07-27T00:31:50.027Z,1.30
2022-07-27T00:34:19.243Z,0.90
2022-07-27T00:36:47.027Z,1.17
2022-07-27T00:39:15.920Z,0.93
2022-07-27T00:41:43.756Z,0.77
2022-07-27T00:44:12.329Z,1.20
2022-07-27T00:46:40.173Z,1.47
2022-07-27T00:49:08.163Z,1.37
2022-07-27T00:51:37.495Z,1.30
2022-07-27T00:54:05.348Z,1.33
2022-07-27T00:56:33.232Z,1.17
2022-07-27T00:59:01.074Z,1.23
2022-07-27T01:01:28.937Z,1.50
2022-07-27T01:03:57.012Z,1.33
2022-07-27T01:06:27.299Z,1.47
2022-07-27T01:09:13.512Z,1.30
2022-07-27T01:11:41.715Z,1.00
2022-07-27T01:14:10.037Z,1.23
2022-07-27T01:16:37.913Z,1.37
2022-07-27T01:19:05.851Z,1.30
2022-07-27T01:21:36.839Z,1.40
2022-07-27T01:24:05.340Z,1.20
2022-07-27T01:26:36.044Z,1.43
2022-07-27T01:29:04.057Z,1.43
2022-07-27T01:31:32.292Z,1.40
2022-07-27T01:34:00.582Z,1.07
2022-07-27T01:36:28.659Z,0.90
2022-07-27T01:38:58.304Z,1.20
2022-07-27T01:41:26.720Z,1.10
2022-07-27T01:43:54.595Z,1.27
2022-07-27T01:46:23.306Z,1.13
2022-07-27T01:48:51.309Z,1.20
2022-07-27T01:51:19.172Z,1.20
2022-07-27T01:53:47.043Z,1.10
2022-07-27T01:56:16.340Z,1.00
2022-07-27T01:58:44.507Z,1.03
2022-07-27T02:01:12.366Z,1.30
2022-07-27T02:03:40.301Z,1.00
2022-07-27T02:06:08.640Z,0.80
2022-07-27T02:08:37.038Z,1.10
2022-07-27T02:11:22.706Z,0.90
2022-07-27T02:13:51.914Z,1.30
2022-07-27T02:16:20.696Z,0.97
2022-07-27T02:18:49.004Z,0.90
2022-07-27T02:21:17.083Z,1.17
2022-07-27T02:23:46.777Z,0.97
2022-07-27T02:26:14.775Z,0.80
2022-07-27T02:28:42.734Z,1.10
2022-07-27T02:31:11.858Z,1.10
2022-07-27T02:33:39.646Z,0.97
2022-07-27T02:36:08.459Z,0.87
2022-07-27T02:38:36.248Z,1.00
2022-07-27T02:41:04.182Z,0.90
2022-07-27T02:43:31.969Z,1.00
2022-07-27T02:45:59.880Z,0.90
2022-07-27T02:48:29.135Z,0.90
2022-07-27T02:51:01.225Z,1.40
2022-07-27T02:53:29.517Z,1.00
2022-07-27T02:55:57.796Z,0.80
2022-07-27T02:58:25.840Z,1.10
2022-07-27T03:00:58.321Z,1.07
2022-07-27T03:03:36.467Z,1.10
2022-07-27T03:06:06.300Z,1.00
2022-07-27T03:08:34.234Z,1.10
2022-07-27T03:11:02.419Z,1.00
2022-07-27T03:13:30.419Z,0.90
2022-07-27T03:15:58.602Z,1.03
2022-07-27T03:18:26.497Z,1.40
2022-07-27T03:20:54.385Z,1.23
2022-07-27T03:23:24.236Z,1.30
2022-07-27T03:25:52.047Z,1.30
2022-07-27T03:28:19.835Z,1.30
2022-07-27T03:30:47.661Z,1.20
2022-07-27T03:33:15.532Z,1.70
2022-07-27T03:35:43.312Z,1.57
2022-07-27T03:38:11.442Z,1.40
2022-07-27T03:40:41.069Z,1.70
2022-07-27T03:43:09.237Z,1.80
2022-07-27T03:45:37.064Z,1.30
2022-07-27T03:48:05.272Z,1.37
2022-07-27T03:50:33.156Z,1.37
2022-07-27T03:53:00.962Z,1.60
2022-07-27T03:55:28.900Z,1.40
2022-07-27T03:57:58.111Z,1.60
2022-07-27T04:00:26.052Z,1.50
2022-07-27T04:02:53.870Z,2.03
2022-07-27T04:05:21.841Z,1.53
2022-07-27T04:07:54.740Z,1.67
2022-07-27T04:10:23.094Z,1.90
2022-07-27T04:12:52.852Z,1.57
2022-07-27T04:15:22.342Z,1.40
2022-07-27T04:17:54.311Z,1.77
2022-07-27T04:20:25.640Z,1.33
2022-07-27T04:22:53.543Z,1.60
2022-07-27T04:25:21.548Z,1.80
2022-07-27T04:27:49.399Z,1.77
2022-07-27T04:30:17.245Z,1.50
2022-07-27T04:32:46.394Z,2.53
2022-07-27T04:35:14.181Z,2.40
2022-07-27T04:37:57.834Z,3.73
2022-07-27T04:40:31.002Z,2.73
2022-07-27T04:42:58.784Z,2.43
2022-07-27T04:45:26.566Z,2.20
2022-07-27T04:47:55.778Z,1.90
2022-07-27T04:50:23.869Z,2.23
2022-07-27T04:52:51.737Z,1.50
2022-07-27T04:55:19.522Z,1.63
2022-07-27T04:57:48.078Z,1.53
2022-07-27T05:00:16.537Z,1.90
2022-07-27T05:02:44.308Z,2.10
2022-07-27T05:05:13.430Z,1.70
2022-07-27T05:07:41.212Z,1.60
2022-07-27T05:10:09.804Z,2.30
2022-07-27T05:12:37.910Z,1.60
2022-07-27T05:15:06.605Z,1.70
2022-07-27T05:17:35.873Z,2.20
2022-07-27T05:20:04.606Z,1.60
2022-07-27T05:22:39.056Z,1.83
2022-07-27T05:25:08.107Z,1.70
2022-07-27T05:27:37.114Z,2.23
2022-07-27T05:30:18.977Z,1.90
2022-07-27T05:32:46.952Z,1.80
2022-07-27T05:35:14.913Z,2.17
2022-07-27T05:37:44.089Z,2.07
2022-07-27T05:40:12.982Z,1.80
2022-07-27T05:42:42.647Z,2.47
2022-07-27T05:45:11.464Z,1.87
2022-07-27T05:47:39.699Z,1.80
2022-07-27T05:50:08.172Z,2.00
2022-07-27T05:52:38.117Z,2.40
2022-07-27T05:55:08.181Z,1.63
2022-07-27T05:57:36.179Z,2.03
2022-07-27T06:00:04.998Z,1.90
2022-07-27T06:02:32.825Z,1.67
2022-07-27T06:05:00.724Z,1.93
2022-07-27T06:07:49.698Z,1.60
2022-07-27T06:10:19.457Z,1.70
2022-07-27T06:12:47.675Z,1.57
2022-07-27T06:15:16.943Z,1.90
2022-07-27T06:17:46.709Z,1.40
2022-07-27T06:20:14.532Z,1.43
2022-07-27T06:22:46.631Z,1.40
2022-07-27T06:25:14.502Z,1.77
2022-07-27T06:27:44.182Z,1.60
2022-07-27T06:30:12.906Z,1.10
2022-07-27T06:32:40.827Z,1.10
2022-07-27T06:35:11.472Z,1.37
2022-07-27T06:37:43.934Z,1.30
2022-07-27T06:40:14.065Z,1.50
2022-07-27T06:42:43.279Z,1.33
2022-07-27T06:45:12.607Z,1.07
2022-07-27T06:47:49.122Z,0.90
2022-07-27T06:50:18.553Z,0.90
2022-07-27T06:52:46.527Z,1.00
2022-07-27T06:55:14.417Z,1.00
2022-07-27T06:57:44.145Z,0.90
2022-07-27T07:00:13.353Z,0.97
2022-07-27T07:02:52.793Z,0.90
2022-07-27T07:05:21.182Z,1.00
2022-07-27T07:07:49.050Z,0.73
2022-07-27T07:10:16.955Z,1.00
2022-07-27T07:12:46.257Z,1.10
2022-07-27T07:15:14.105Z,1.10
2022-07-27T07:17:42.601Z,0.80
2022-07-27T07:20:11.603Z,0.90
2022-07-27T07:22:39.458Z,0.90
2022-07-27T07:25:07.561Z,1.10
2022-07-27T07:27:35.362Z,1.10
2022-07-27T07:30:05.073Z,0.83
2022-07-27T07:32:33.672Z,0.87
2022-07-27T07:35:03.587Z,0.90
2022-07-27T07:37:33.871Z,0.90
2022-07-27T07:40:24.850Z,1.40
2022-07-27T07:42:55.047Z,1.20
2022-07-27T07:45:26.054Z,0.70
2022-07-27T07:47:54.331Z,1.10
2022-07-27T07:50:22.985Z,0.97
2022-07-27T07:52:51.810Z,0.80
2022-07-27T07:55:21.764Z,0.83
2022-07-27T07:57:50.660Z,0.80
2022-07-27T08:00:19.806Z,0.53
2022-07-27T08:02:51.969Z,0.97
2022-07-27T08:05:19.878Z,1.00
2022-07-27T08:07:47.826Z,1.10
2022-07-27T08:10:17.347Z,0.77
2022-07-27T08:12:47.727Z,0.93
2022-07-27T08:15:17.316Z,0.83
2022-07-27T08:17:45.485Z,1.17
2022-07-27T08:20:16.331Z,0.90
2022-07-27T08:22:46.303Z,0.93
2022-07-27T08:25:14.548Z,0.90
2022-07-27T08:27:42.711Z,0.70
2022-07-27T08:30:15.526Z,1.10
2022-07-27T08:32:51.241Z,0.70
2022-07-27T08:35:21.006Z,0.80
2022-07-27T08:37:49.210Z,0.90
2022-07-27T08:43:07.324Z,0.90
2022-07-27T08:45:35.895Z,1.13
2022-07-27T08:48:05.881Z,0.93
2022-07-27T08:50:35.627Z,0.90
2022-07-27T08:53:05.675Z,0.90
2022-07-27T08:55:36.258Z,0.63
2022-07-27T08:58:05.165Z,0.80
2022-07-27T09:00:34.386Z,0.73
2022-07-27T09:03:03.328Z,0.93
2022-07-27T09:05:37.738Z,0.60
2022-07-27T09:08:15.278Z,0.90
2022-07-27T09:10:43.499Z,0.93
2022-07-27T09:13:23.273Z,0.90
2022-07-27T09:18:41.892Z,0.80
2022-07-27T09:21:15.754Z,0.70
2022-07-27T09:23:48.575Z,0.97
2022-07-27T09:26:31.672Z,1.23
2022-07-27T09:29:02.425Z,0.70
2022-07-27T09:31:31.254Z,0.90
2022-07-27T09:34:01.150Z,0.73
2022-07-27T09:36:30.564Z,0.70
2022-07-27T09:39:11.155Z,0.80
2022-07-27T09:41:44.059Z,0.60
2022-07-27T09:47:02.188Z,0.80
2022-07-27T09:49:33.173Z,1.00
2022-07-27T09:52:02.793Z,1.03
2022-07-27T09:54:45.210Z,0.80
2022-07-27T09:57:13.046Z,0.83
2022-07-27T09:59:40.950Z,0.90
2022-07-27T10:02:09.449Z,0.93
2022-07-27T10:04:37.489Z,0.80
2022-07-27T10:07:10.611Z,0.90
2022-07-27T10:09:40.492Z,1.10
2022-07-27T10:12:10.439Z,0.70
2022-07-27T10:14:38.230Z,1.23
2022-07-27T10:17:10.621Z,1.00
2022-07-27T10:19:45.606Z,1.30
2022-07-27T10:22:13.978Z,1.40
2022-07-27T10:24:41.913Z,0.80
2022-07-27T10:27:26.138Z,0.77
2022-07-27T10:29:54.478Z,0.70
2022-07-27T10:32:26.524Z,0.90
2022-07-27T10:34:54.711Z,0.73
2022-07-27T10:37:26.809Z,0.77
2022-07-27T10:40:16.914Z,0.80
2022-07-27T10:42:53.608Z,0.60
2022-07-27T10:45:22.625Z,0.83
2022-07-27T10:47:52.172Z,1.10
2022-07-27T10:50:21.897Z,1.10
2022-07-27T10:52:51.946Z,0.70
2022-07-27T10:55:56.443Z,1.10
2022-07-27T10:58:53.274Z,0.73
2022-07-27T11:01:23.668Z,0.70
2022-07-27T11:03:53.513Z,0.70
2022-07-27T11:06:41.958Z,0.90
2022-07-27T11:12:01.743Z,1.17
2022-07-27T11:14:31.997Z,1.00
2022-07-27T11:17:24.278Z,0.90
2022-07-27T11:19:55.643Z,0.97
2022-07-27T11:23:03.265Z,0.80
2022-07-27T11:25:23.272Z,0.90
2022-07-27T11:27:51.971Z,1.00
2022-07-27T11:30:26.280Z,0.93
2022-07-27T11:32:54.533Z,1.00
2022-07-27T11:35:22.791Z,1.00
2022-07-27T11:38:02.773Z,0.73
2022-07-27T11:41:16.983Z,0.93
2022-07-27T11:43:36.873Z,0.70
2022-07-27T11:46:22.869Z,0.70
2022-07-27T11:49:08.410Z,0.63
2022-07-27T11:51:38.670Z,0.97
2022-07-27T11:54:08.397Z,1.00
2022-07-27T11:56:37.985Z,0.70
2022-07-27T11:59:11.680Z,0.90
2022-07-27T12:01:43.246Z,0.97
2022-07-27T12:04:13.945Z,0.87
2022-07-27T12:06:46.235Z,0.87
2022-07-27T12:09:16.550Z,0.80
2022-07-27T12:11:50.431Z,0.73
2022-07-27T12:14:19.013Z,0.97
2022-07-27T12:16:48.524Z,1.20
2022-07-27T12:19:26.182Z,1.00
2022-07-27T12:21:55.222Z,0.77
2022-07-27T12:24:34.462Z,0.80
2022-07-27T12:27:06.614Z,1.00
2022-07-27T12:29:35.005Z,0.80
2022-07-27T12:32:06.230Z,0.87
2022-07-27T12:34:35.489Z,0.87
2022-07-27T12:37:12.148Z,1.00
2022-07-27T12:39:42.290Z,0.90
2022-07-27T12:42:10.981Z,0.97
2022-07-27T12:44:41.216Z,0.80
2022-07-27T12:47:29.225Z,1.20
2022-07-27T12:50:05.750Z,0.80
2022-07-27T12:52:34.392Z,1.17
2022-07-27T12:55:02.740Z,1.27
2022-07-27T12:57:54.049Z,1.00
2022-07-27T13:00:20.072Z,1.10
2022-07-27T13:02:49.322Z,0.93
2022-07-27T13:05:19.508Z,1.30
2022-07-27T13:07:47.770Z,1.00
2022-07-27T13:10:18.729Z,1.17
2022-07-27T13:12:47.703Z,1.17
2022-07-27T13:15:16.534Z,1.07
2022-07-27T13:17:45.654Z,0.90
2022-07-27T13:20:16.428Z,0.77
2022-07-27T13:22:46.228Z,1.00
2022-07-27T13:25:15.364Z,1.50
2022-07-27T13:27:45.487Z,1.30
2022-07-27T13:30:14.536Z,1.53
2022-07-27T13:32:43.324Z,1.27
2022-07-27T13:35:13.189Z,1.93
2022-07-27T13:37:42.846Z,2.23
2022-07-27T13:40:11.285Z,1.00
2022-07-27T13:42:39.352Z,1.00
2022-07-27T13:45:10.438Z,1.40
2022-07-27T13:47:39.486Z,1.10
2022-07-27T13:50:16.781Z,0.90
2022-07-27T13:52:48.216Z,0.73
2022-07-27T13:55:17.223Z,0.90
2022-07-27T13:57:45.230Z,0.87
2022-07-27T14:00:14.173Z,0.70
2022-07-27T14:02:42.217Z,0.80
2022-07-27T14:05:13.037Z,0.77
2022-07-27T14:07:42.791Z,1.07
2022-07-27T14:10:26.516Z,0.93
2022-07-27T14:12:58.985Z,0.97
2022-07-27T14:15:27.057Z,1.00
2022-07-27T14:17:54.903Z,0.60
2022-07-27T14:20:23.064Z,0.63
2022-07-27T14:22:50.870Z,0.60
2022-07-27T14:25:20.127Z,0.90
2022-07-27T14:27:47.971Z,1.10
2022-07-27T14:30:20.612Z,0.90
2022-07-27T14:32:49.028Z,0.57
2022-07-27T14:35:16.950Z,0.80
2022-07-27T14:37:46.192Z,0.57
2022-07-27T14:40:15.358Z,0.80
2022-07-27T14:42:44.539Z,0.87
2022-07-27T14:45:12.599Z,0.67
2022-07-27T14:47:40.426Z,0.70
2022-07-27T14:50:09.521Z,0.87
2022-07-27T14:52:37.542Z,1.37
2022-07-27T14:55:06.083Z,1.07
2022-07-27T14:57:33.995Z,0.80
2022-07-27T15:00:09.676Z,1.07
2022-07-27T15:02:38.344Z,0.90
2022-07-27T15:05:07.607Z,0.63
2022-07-27T15:07:36.128Z,1.20
2022-07-27T15:10:07.973Z,0.87
2022-07-27T15:12:37.974Z,0.70
2022-07-27T15:15:09.770Z,0.70
2022-07-27T15:17:38.894Z,1.00
2022-07-27T15:20:08.448Z,1.00
2022-07-27T15:22:36.324Z,0.73
2022-07-27T15:25:04.699Z,1.03
2022-07-27T15:27:32.585Z,1.10
2022-07-27T15:30:00.385Z,0.90
2022-07-27T15:32:29.620Z,1.20
2022-07-27T15:34:57.848Z,0.90
2022-07-27T15:37:25.641Z,0.80
2022-07-27T15:39:53.706Z,1.20
2022-07-27T15:42:21.759Z,0.97
2022-07-27T15:44:49.579Z,1.10
2022-07-27T15:47:17.361Z,0.90
2022-07-27T15:49:46.490Z,0.73
2022-07-27T15:52:14.313Z,1.00
2022-07-27T15:54:45.437Z,0.93
2022-07-27T15:57:13.552Z,0.83
2022-07-27T15:59:41.348Z,0.90
2022-07-27T16:02:10.118Z,1.20
2022-07-27T16:04:38.533Z,0.97
2022-07-27T16:07:07.787Z,0.80
2022-07-27T16:09:37.004Z,1.20
2022-07-27T16:12:05.098Z,1.00
2022-07-27T16:14:32.927Z,0.80
2022-07-27T16:17:00.715Z,0.90
2022-07-27T16:19:28.575Z,1.10
2022-07-27T16:21:58.113Z,1.17
2022-07-27T16:24:28.041Z,0.90
2022-07-27T16:26:56.614Z,1.13
2022-07-27T16:29:25.058Z,1.23
2022-07-27T16:31:57.791Z,1.00
2022-07-27T16:34:26.402Z,0.90
2022-07-27T16:36:54.489Z,1.03
2022-07-27T16:39:22.380Z,1.23
2022-07-27T16:41:52.028Z,1.00
2022-07-27T16:44:21.547Z,1.00
2022-07-27T16:46:49.894Z,1.40
2022-07-27T16:49:18.383Z,0.80
2022-07-27T16:51:47.263Z,1.13
2022-07-27T16:54:15.448Z,0.93
2022-07-27T16:56:43.270Z,1.40
2022-07-27T16:59:12.797Z,1.00
2022-07-27T17:01:41.070Z,0.87
2022-07-27T17:04:08.967Z,2.10
2022-07-27T17:06:37.549Z,1.00
2022-07-27T17:09:06.043Z,0.87
2022-07-27T17:11:37.136Z,1.83
2022-07-27T17:14:06.956Z,1.20
2022-07-27T17:16:36.242Z,0.97
2022-07-27T17:19:04.225Z,1.50
2022-07-27T17:21:32.206Z,0.87
2022-07-27T17:24:00.065Z,1.10
2022-07-27T17:26:27.972Z,1.00
2022-07-27T17:28:55.800Z,0.97
2022-07-27T17:31:23.935Z,0.90
2022-07-27T17:33:53.317Z,1.10
2022-07-27T17:36:22.332Z,1.00
2022-07-27T17:38:51.711Z,0.80
2022-07-27T17:41:24.648Z,0.90
2022-07-27T17:43:54.025Z,1.00
2022-07-27T17:46:23.028Z,1.17
2022-07-27T17:48:51.136Z,0.93
2022-07-27T17:51:22.910Z,1.03
2022-07-27T17:53:50.760Z,1.30
2022-07-27T17:56:19.178Z,1.90
2022-07-27T17:58:48.030Z,1.20
2022-07-27T18:01:16.070Z,1.07
2022-07-27T18:03:44.138Z,0.97
2022-07-27T18:06:14.248Z,1.37
2022-07-27T18:08:44.498Z,1.00
2022-07-27T18:11:14.618Z,1.13
2022-07-27T18:13:42.793Z,0.90
2022-07-27T18:16:12.128Z,1.27
2022-07-27T18:18:41.242Z,0.80
2022-07-27T18:21:10.551Z,1.00
2022-07-27T18:23:38.724Z,1.20
2022-07-27T18:26:09.905Z,0.90
2022-07-27T18:28:39.979Z,1.47
2022-07-27T18:31:09.941Z,1.17
2022-07-27T18:33:40.232Z,1.07
2022-07-27T18:36:08.630Z,1.00
2022-07-27T18:38:38.131Z,0.93
2022-07-27T18:41:08.029Z,1.57
2022-07-27T18:43:36.352Z,1.30
2022-07-27T18:46:07.137Z,1.90
2022-07-27T18:48:35.309Z,10.60
2022-07-27T18:51:04.876Z,7.60
2022-07-27T19:13:22.338Z,1.60
2022-07-27T19:16:55.449Z,1.37
2022-07-27T19:23:12.305Z,1.70
2022-07-27T19:25:40.353Z,1.20
2022-07-27T19:28:08.982Z,1.00
2022-07-27T19:38:21.336Z,1.40
2022-07-27T19:40:58.103Z,1.70
2022-07-27T19:43:31.086Z,2.67
2022-07-27T19:46:08.715Z,2.70
2022-07-27T19:48:47.723Z,2.30
2022-07-27T19:51:24.205Z,1.23
2022-07-27T19:53:52.643Z,1.40
2022-07-27T19:56:22.176Z,1.23
2022-07-27T19:58:54.066Z,1.00
2022-07-27T20:01:22.252Z,1.10
2022-07-27T20:03:54.090Z,1.20
2022-07-27T20:06:23.540Z,1.20
2022-07-27T20:08:57.615Z,1.20
2022-07-27T20:11:30.757Z,1.90
2022-07-27T20:16:43.846Z,2.13
2022-07-27T20:22:44.991Z,2.27
2022-07-27T20:25:46.170Z,1.43
2022-07-27T20:28:35.944Z,1.20
2022-07-27T20:31:32.726Z,1.20
2022-07-27T20:34:11.121Z,1.30
2022-07-27T20:36:58.948Z,3.03
2022-07-27T20:39:29.691Z,9.67
2022-07-27T20:41:57.963Z,6.23
2022-07-27T20:44:27.882Z,1.73
2022-07-27T20:47:00.330Z,1.73
2022-07-27T20:49:29.223Z,1.57
2022-07-27T20:51:57.294Z,2.00
2022-07-27T20:54:28.884Z,1.63
2022-07-27T20:56:57.332Z,1.90
2022-07-27T20:59:27.206Z,1.47
2022-07-27T21:01:58.786Z,1.50
2022-07-27T21:04:27.173Z,1.33
2022-07-27T21:06:55.526Z,1.37
2022-07-27T21:09:23.772Z,1.60
2022-07-27T21:11:52.203Z,1.40
2022-07-27T21:14:20.180Z,1.30
2022-07-27T21:16:49.633Z,1.47
2022-07-27T21:19:19.132Z,1.40
2022-07-27T21:21:49.574Z,2.03
2022-07-27T21:24:17.536Z,1.77
2022-07-27T21:26:47.109Z,1.43
2022-07-27T21:29:16.766Z,1.43
2022-07-27T21:31:48.340Z,1.40
2022-07-27T21:34:21.389Z,1.17
2022-07-27T21:36:49.888Z,1.27
2022-07-27T21:39:18.876Z,1.37
2022-07-27T21:41:49.964Z,1.50
2022-07-27T21:44:22.031Z,1.00
2022-07-27T21:46:52.692Z,1.00
2022-07-27T21:49:34.285Z,1.10
2022-07-27T21:52:06.069Z,1.00
2022-07-27T21:54:33.914Z,1.27
2022-07-27T21:57:01.777Z,1.10
2022-07-27T21:59:29.618Z,1.10
2022-07-27T22:01:58.775Z,1.17
2022-07-27T22:04:28.025Z,1.10
2022-07-27T22:06:55.920Z,1.07
2022-07-27T22:09:23.756Z,1.23
2022-07-27T22:11:51.565Z,1.57
2022-07-27T22:14:20.399Z,1.40
2022-07-27T22:16:48.249Z,1.27
2022-07-27T22:19:16.097Z,1.00
2022-07-27T22:21:45.537Z,1.30
2022-07-27T22:24:13.747Z,0.90
2022-07-27T22:26:41.863Z,1.17
2022-07-27T22:29:09.670Z,1.10
2022-07-27T22:31:37.470Z,1.57
2022-07-27T22:34:05.351Z,1.10
2022-07-27T22:36:33.351Z,0.93
2022-07-27T22:39:02.451Z,1.10
2022-07-27T22:41:30.238Z,1.40
2022-07-27T22:43:58.142Z,1.10
2022-07-27T22:46:26.139Z,1.20
2022-07-27T22:48:54.048Z,1.17
2022-07-27T22:51:21.889Z,1.30
2022-07-27T22:53:49.696Z,1.00
2022-07-27T22:56:19.056Z,1.30
2022-07-27T22:58:46.845Z,1.00
2022-07-27T23:01:28.405Z,1.10
2022-07-27T23:04:02.457Z,1.37
2022-07-27T23:06:30.259Z,1.20
2022-07-27T23:08:58.109Z,1.30
2022-07-27T23:11:27.501Z,1.03
2022-07-27T23:13:55.358Z,1.00
2022-07-27T23:16:23.237Z,0.97
2022-07-27T23:18:51.103Z,1.00
2022-07-27T23:21:18.897Z,1.00
2022-07-27T23:23:52.159Z,1.20
2022-07-27T23:26:25.833Z,0.90
2022-07-27T23:28:55.193Z,1.07
2022-07-27T23:31:23.388Z,1.00
2022-07-27T23:33:51.469Z,1.10
2022-07-27T23:36:19.380Z,1.10
2022-07-27T23:38:47.571Z,0.90
2022-07-27T23:41:16.634Z,1.47
2022-07-27T23:43:45.188Z,1.07
2022-07-27T23:46:14.407Z,0.90
2022-07-27T23:48:42.381Z,1.13
2022-07-27T23:51:10.209Z,1.13
2022-07-27T23:53:38.041Z,1.00
2022-07-27T23:56:06.374Z,0.97
2022-07-27T23:58:34.176Z,0.80
